European Causeway — C6RG7 — position and weather

sailwx.info

Track history (hours):
 
Tides and Currents Weather Stations Pressure Air Temp Water Temp Dewpoint Dewpoint Depression Visibility Wind Speed Wind Dir Waves Ship Positions

European Causeway

Operator: P & O Irish Sea

Last reported at 2015-Sep-02 16:33 UTC. Time now 2015-Sep-02 16:58 UTC.
Position N 54°59' W 005°19'.

Length 165 m; draft 5.5 m.

Type: Ship (hazmat cat A). MMSI: 311027000.

Date/timePositionNaut miles runAvg speedWind from/ knotsBaromVisibWave heightAir tempDewpointWater temp
2015-Sep-02 16:33N 54°59' W 005°19'1817.5
2015-Sep-02 15:33N 54°52' W 005°47'1 1.2
2015-Sep-02 14:34N 54°51' W 005°48'1312.9
2015-Sep-02 13:33N 54°57' W 005°28'1514.7
2015-Sep-02 12:31N 54°58' W 005°02'1 0.7
2015-Sep-02 11:33N 54°58' W 005°01'9 8.9
2015-Sep-02 10:33N 54°59' W 005°16'1817.6
2015-Sep-02 09:33N 54°52' W 005°45'2 2.3
2015-Sep-02 08:33N 54°51' W 005°48'1312.9
2015-Sep-02 07:34N 54°57' W 005°28'1514.2
2015-Sep-02 06:31N 54°59' W 005°03'2 1.9
2015-Sep-02 05:33N 54°58' W 005°01'5 5.1
2015-Sep-02 04:33N 55°01' W 005°07'1817.8
2015-Sep-02 03:33N 54°54' W 005°36'8 7.9
2015-Sep-02 02:33N 54°51' W 005°48'0 0.0
2015-Sep-02 01:33N 54°51' W 005°48'5 4.7
2015-Sep-02 00:31N 54°53' W 005°41'1616.2
2015-Sep-01 23:33N 55°00' W 005°16'9 9.0
2015-Sep-01 22:32N 54°58' W 005°01'0 0.0
2015-Sep-01 21:29N 54°58' W 005°01'5 5.5
2015-Sep-01 20:32N 55°02' W 005°07'1716.8
2015-Sep-01 19:32N 54°55' W 005°34'9 8.4
2015-Sep-01 18:29N 54°51' W 005°48'0 0.0
2015-Sep-01 17:32N 54°51' W 005°48'1313.7
2015-Sep-01 16:34N 54°58' W 005°28'1514.5
2015-Sep-01 15:31N 54°58' W 005°01'0 0.2
2015-Sep-01 14:32N 54°58' W 005°01'1111.4
2015-Sep-01 13:33N 54°58' W 005°20'1717.5
2015-Sep-01 12:33N 54°51' W 005°48'0 0.1
2015-Sep-01 11:33N 54°51' W 005°48'1312.9
2015-Sep-01 10:33N 54°57' W 005°28'1514.5
2015-Sep-01 09:33N 54°59' W 005°03'2 1.9
2015-Sep-01 08:33N 54°58' W 005°01'9 9.2
2015-Sep-01 07:33N 54°59' W 005°17'1917.9
2015-Sep-01 06:29N 54°51' W 005°48'1 0.6
2015-Sep-01 05:34N 54°51' W 005°48'5 4.5
2015-Sep-01 04:33N 54°53' W 005°41'1515.2
2015-Sep-01 03:33N 55°00' W 005°18'10 9.9
2015-Sep-01 02:34N 54°58' W 005°01'0 0.0
2015-Sep-01 01:33N 54°58' W 005°01'6 5.5
2015-Sep-01 00:30N 55°01' W 005°09'1718.2
2015-Aug-31 23:34N 54°54' W 005°36'8 7.7
2015-Aug-31 22:33N 54°51' W 005°48'0 0.0
2015-Aug-31 21:33N 54°51' W 005°48'5 4.8
2015-Aug-31 20:34N 54°53' W 005°41'1515.0
2015-Aug-31 19:33N 54°60' W 005°17'9 8.9
2015-Aug-31 18:30N 54°58' W 005°01'0 0.0
2015-Aug-31 17:33N 54°58' W 005°01'1212.0
2015-Aug-31 16:33N 54°58' W 005°22'1715.1
2015-Aug-31 15:28N 54°51' W 005°48'0 0.0
2015-Aug-31 14:32N 54°51' W 005°48'1313.5
2015-Aug-31 13:33N 54°57' W 005°28'1413.7
2015-Aug-31 12:32N 54°60' W 005°04'3 2.6
2015-Aug-31 11:33N 54°58' W 005°01'1010.1
2015-Aug-31 10:33N 54°59' W 005°19'1817.3
2015-Aug-31 09:32N 54°52' W 005°47'1 1.2
2015-Aug-31 08:33N 54°51' W 005°48'1211.9
2015-Aug-31 07:33N 54°56' W 005°30'1514.5
2015-Aug-31 06:30N 54°59' W 005°03'2 2.3
2015-Aug-31 05:33N 54°58' W 005°01'5 4.8
2015-Aug-31 04:31N 55°01' W 005°07'1717.9
2015-Aug-31 03:33N 54°55' W 005°35'9 8.8
2015-Aug-31 02:33N 54°51' W 005°48'0 0.0
2015-Aug-31 01:33N 54°51' W 005°48'0 0.0
2015-Aug-31 00:33N 54°51' W 005°48'4 4.2
2015-Aug-30 23:34N 54°53' W 005°42'1515.2
2015-Aug-30 22:33N 54°60' W 005°18'10 9.3
2015-Aug-30 21:29N 54°58' W 005°01'5 5.1
2015-Aug-30 20:31N 55°01' W 005°07'1515.5
2015-Aug-30 19:33N 54°55' W 005°30'1110.9
2015-Aug-30 18:33N 54°51' W 005°48'0 0.0
2015-Aug-30 17:33N 54°51' W 005°48'1211.9
2015-Aug-30 16:34N 54°57' W 005°30'1614.0
2015-Aug-30 15:27N 54°59' W 005°03'2 2.3
2015-Aug-30 14:31N 54°58' W 005°01'5 4.8
2015-Aug-30 13:30N 55°02' W 005°06'1717.5
2015-Aug-30 12:33N 54°55' W 005°33'10 9.6
2015-Aug-30 11:33N 54°51' W 005°48'0 0.0
2015-Aug-30 10:33N 54°51' W 005°48'0 0.0
2015-Aug-30 09:33N 54°51' W 005°48'0 0.0
2015-Aug-30 08:33N 54°51' W 005°48'1413.7
2015-Aug-30 07:33N 54°58' W 005°27'1413.5
2015-Aug-30 06:32N 54°59' W 005°03'2 2.2
2015-Aug-30 05:33N 54°58' W 005°01'0 0.0
2015-Aug-30 04:33N 54°58' W 005°01'0 0.0
2015-Aug-30 03:33N 54°58' W 005°01'0 0.0
2015-Aug-30 02:33N 54°58' W 005°01'0 0.0
2015-Aug-30 01:33N 54°58' W 005°01'0 0.0
2015-Aug-30 00:33N 54°58' W 005°01'0 0.0
2015-Aug-29 23:33N 54°58' W 005°01'0 0.0
2015-Aug-29 22:33N 54°58' W 005°01'0 0.0
2015-Aug-29 21:32N 54°58' W 005°01'5 4.9
2015-Aug-29 20:26N 55°01' W 005°08'1415.6
2015-Aug-29 19:33N 54°56' W 005°29'1211.6
2015-Aug-29 18:33N 54°51' W 005°48'0 0.0
2015-Aug-29 17:33N 54°51' W 005°48'1313.3
2015-Aug-29 16:33N 54°57' W 005°28'1514.6
2015-Aug-29 15:33N 54°59' W 005°02'1 1.2
2015-Aug-29 14:33N 54°58' W 005°01'1212.2
2015-Aug-29 13:33N 54°57' W 005°22'1615.9
2015-Aug-29 12:33N 54°51' W 005°48'0 0.1
2015-Aug-29 11:32N 54°51' W 005°48'1312.8
2015-Aug-29 10:34N 54°57' W 005°29'1514.5
2015-Aug-29 09:32N 54°59' W 005°03'2 2.1
2015-Aug-29 08:34N 54°58' W 005°01'10 9.8
2015-Aug-29 07:33N 54°59' W 005°18'1616.0
2015-Aug-29 06:34N 54°52' W 005°44'3 2.9
2015-Aug-29 05:33N 54°51' W 005°48'6 5.7
2015-Aug-29 04:33N 54°54' W 005°39'1616.4
2015-Aug-29 03:34N 55°01' W 005°14'8 7.8
2015-Aug-29 02:33N 54°58' W 005°01'0 0.0
2015-Aug-29 01:33N 54°58' W 005°01'6 5.2
2015-Aug-29 00:26N 55°02' W 005°09'1617.8
2015-Aug-28 23:33N 54°55' W 005°33'9 9.2
2015-Aug-28 22:33N 54°51' W 005°48'0 0.0
2015-Aug-28 21:33N 54°51' W 005°48'6 5.7
2015-Aug-28 20:33N 54°54' W 005°39'1616.1
2015-Aug-28 19:34N 55°01' W 005°14'8 7.6
2015-Aug-28 18:29N 54°58' W 005°01'0 0.0
2015-Aug-28 17:33N 54°58' W 005°01'1010.1
2015-Aug-28 16:33N 54°58' W 005°18'1817.3
2015-Aug-28 15:32N 54°52' W 005°47'1 1.2
2015-Aug-28 14:33N 54°51' W 005°48'1615.5
2015-Aug-28 13:33N 54°58' W 005°24'1312.8
2015-Aug-28 12:31N 54°58' W 005°01'0 0.0
2015-Aug-28 11:29N 54°58' W 005°01'1112.0
2015-Aug-28 10:33N 54°59' W 005°20'1817.7
2015-Aug-28 09:34N 54°51' W 005°48'0 0.1
2015-Aug-28 08:33N 54°51' W 005°48'1313.4
2015-Aug-28 07:34N 54°57' W 005°28'1414.0
2015-Aug-28 06:33N 54°59' W 005°03'2 2.0
2015-Aug-28 05:33N 54°58' W 005°01'5 5.0
2015-Aug-28 04:30N 55°02' W 005°07'1617.3
2015-Aug-28 03:33N 54°55' W 005°33'9 9.5
2015-Aug-28 02:33N 54°51' W 005°48'0 0.0
2015-Aug-28 01:34N 54°51' W 005°48'6 6.1
2015-Aug-28 00:33N 54°55' W 005°40'1818.0
2015-Aug-27 23:33N 55°02' W 005°11'7 6.7
2015-Aug-27 22:34N 54°58' W 005°01'0 0.0
2015-Aug-27 21:31N 54°58' W 005°01'7 6.0
2015-Aug-27 20:23N 55°02' W 005°11'1416.8
2015-Aug-27 19:33N 54°55' W 005°32'1010.0
2015-Aug-27 18:33N 54°51' W 005°48'0 0.0
2015-Aug-27 17:33N 54°51' W 005°48'1413.9
2015-Aug-27 16:33N 54°58' W 005°27'1513.2
2015-Aug-27 15:26N 54°58' W 005°01'0 0.0
2015-Aug-27 14:32N 54°58' W 005°01'1010.3
2015-Aug-27 13:34N 54°59' W 005°18'1817.5
2015-Aug-27 12:32N 54°52' W 005°47'1 1.2
2015-Aug-27 11:31N 54°51' W 005°48'1212.8
2015-Aug-27 10:34N 54°57' W 005°29'1515.1
2015-Aug-27 09:33N 54°59' W 005°03'2 2.3
2015-Aug-27 08:33N 54°58' W 005°01'9 8.9
2015-Aug-27 07:33N 54°59' W 005°16'2017.7
2015-Aug-27 06:26N 54°51' W 005°48'0 0.1
2015-Aug-27 05:28N 54°51' W 005°48'8 8.5
2015-Aug-27 04:33N 54°55' W 005°36'1817.8
2015-Aug-27 03:33N 55°02' W 005°07'5 5.3
2015-Aug-27 02:33N 54°58' W 005°01'0 0.0
2015-Aug-27 01:33N 54°58' W 005°01'5 4.6
2015-Aug-27 00:30N 55°02' W 005°06'1818.7
2015-Aug-26 23:33N 54°55' W 005°34'9 8.7
2015-Aug-26 22:33N 54°51' W 005°48'0 0.0
2015-Aug-26 21:33N 54°51' W 005°48'4 4.0
2015-Aug-26 20:28N 54°54' W 005°43'1617.1
2015-Aug-26 19:32N 55°00' W 005°18'10 9.7
2015-Aug-26 18:30N 54°58' W 005°01'0 0.0
2015-Aug-26 17:33N 54°58' W 005°01'9 8.6
2015-Aug-26 16:33N 54°60' W 005°16'1918.6
2015-Aug-26 15:33N 54°52' W 005°45'2 2.0
2015-Aug-26 14:33N 54°51' W 005°48'1313.2
2015-Aug-26 13:33N 54°57' W 005°28'1514.9
2015-Aug-26 12:34N 54°59' W 005°02'1 1.2
2015-Aug-26 11:33N 54°58' W 005°01'9 9.1
2015-Aug-26 10:33N 54°59' W 005°17'1818.1
2015-Aug-26 09:33N 54°52' W 005°45'2 1.9
2015-Aug-26 08:33N 54°51' W 005°48'1211.7
2015-Aug-26 07:34N 54°56' W 005°30'1615.7
2015-Aug-26 06:33N 54°59' W 005°03'2 1.9
2015-Aug-26 05:32N 54°58' W 005°01'5 4.6
2015-Aug-26 04:29N 55°02' W 005°06'1617.6
2015-Aug-26 03:33N 54°55' W 005°32'1010.1
2015-Aug-26 02:33N 54°51' W 005°48'0 0.0
2015-Aug-26 01:33N 54°51' W 005°48'3 3.5
2015-Aug-26 00:33N 54°53' W 005°43'1818.4
2015-Aug-25 23:33N 55°01' W 005°14'8 8.0
2015-Aug-25 22:30N 54°58' W 005°01'5 2.6
2015-Aug-25 20:27N 55°01' W 005°08'1618.1
2015-Aug-25 19:33N 54°55' W 005°33'9 9.3
2015-Aug-25 18:33N 54°51' W 005°48'0 0.0
2015-Aug-25 17:34N 54°51' W 005°48'1212.2
2015-Aug-25 16:33N 54°57' W 005°29'1515.5
2015-Aug-25 15:33N 54°59' W 005°03'1 1.4
2015-Aug-25 14:33N 54°58' W 005°01'1110.7
2015-Aug-25 13:33N 54°58' W 005°20'1717.4
2015-Aug-25 12:33N 54°51' W 005°48'1 0.6
2015-Aug-25 11:33N 54°51' W 005°48'1111.4
2015-Aug-25 10:34N 54°57' W 005°31'1616.0
2015-Aug-25 09:33N 54°59' W 005°03'2 2.2
2015-Aug-25 08:33N 54°58' W 005°01'1010.1
2015-Aug-25 07:33N 54°59' W 005°18'1918.4
2015-Aug-25 06:33N 54°51' W 005°48'0 0.5
2015-Aug-25 05:33N 54°51' W 005°48'6 6.2
2015-Aug-25 04:33N 54°54' W 005°39'1918.5
2015-Aug-25 03:33N 55°02' W 005°09'6 6.1
2015-Aug-25 02:33N 54°58' W 005°01'0 0.0
2015-Aug-25 01:33N 54°58' W 005°01'5 5.1
2015-Aug-25 00:31N 55°02' W 005°07'1717.9
2015-Aug-24 23:33N 54°54' W 005°34'8 8.4
2015-Aug-24 22:33N 54°51' W 005°48'0 0.0
2015-Aug-24 21:30N 54°51' W 005°48'2 1.7
2015-Aug-24 20:33N 54°52' W 005°46'1918.6
2015-Aug-24 19:34N 54°60' W 005°17'9 9.0
2015-Aug-24 18:31N 54°58' W 005°01'0 0.0
2015-Aug-24 17:33N 54°58' W 005°01'10 9.9
2015-Aug-24 16:33N 54°59' W 005°18'1818.2
2015-Aug-24 15:34N 54°52' W 005°47'1 0.9
2015-Aug-24 14:33N 54°51' W 005°48'1111.4
2015-Aug-24 13:33N 54°57' W 005°31'1615.6
2015-Aug-24 12:31N 54°59' W 005°03'2 1.6
2015-Aug-24 11:31N 54°58' W 005°01'10 9.9
2015-Aug-24 10:33N 54°59' W 005°17'1917.9
2015-Aug-24 09:30N 54°51' W 005°48'1 0.6
2015-Aug-24 08:33N 54°51' W 005°48'1111.2
2015-Aug-24 07:34N 54°57' W 005°31'1715.6
2015-Aug-24 06:30N 54°59' W 005°03'2 1.8
2015-Aug-24 05:33N 54°58' W 005°01'5 4.8
2015-Aug-24 04:33N 55°02' W 005°06'1818.2
2015-Aug-24 03:34N 54°54' W 005°34'9 8.4
2015-Aug-24 02:32N 54°51' W 005°48'0 0.0
2015-Aug-24 01:32N 54°51' W 005°48'0 0.0
2015-Aug-24 00:32N 54°51' W 005°48'3 3.1
2015-Aug-23 23:33N 54°53' W 005°45'1918.6
2015-Aug-23 22:34N 55°02' W 005°17'5 2.2
2015-Aug-23 20:23N 55°02' W 005°08'1618.7
2015-Aug-23 19:33N 54°55' W 005°33'10 9.6
2015-Aug-23 18:33N 54°51' W 005°48'0 0.0
2015-Aug-23 17:33N 54°51' W 005°48'1211.5
2015-Aug-23 16:34N 54°57' W 005°31'  
Track history (hours):
 
Tides and Currents Weather Stations Pressure Air Temp Water Temp Dewpoint Dewpoint Depression Visibility Wind Speed Wind Dir Waves Ship Positions

European Causeway

Operator: P & O Irish Sea

Last reported at 2015-Sep-02 16:33 UTC. Time now 2015-Sep-02 16:58 UTC.
Position N 54°59' W 005°19'.

Length 165 m; draft 5.5 m.

Type: Ship (hazmat cat A). MMSI: 311027000.

Date/timePositionNaut miles runAvg speedWind from/ knotsBaromVisibWave heightAir tempDewpointWater temp
2015-Sep-02 16:33N 54°59' W 005°19'1817.5
2015-Sep-02 15:33N 54°52' W 005°47'1 1.2
2015-Sep-02 14:34N 54°51' W 005°48'1312.9
2015-Sep-02 13:33N 54°57' W 005°28'1514.7
2015-Sep-02 12:31N 54°58' W 005°02'1 0.7
2015-Sep-02 11:33N 54°58' W 005°01'9 8.9
2015-Sep-02 10:33N 54°59' W 005°16'1817.6
2015-Sep-02 09:33N 54°52' W 005°45'2 2.3
2015-Sep-02 08:33N 54°51' W 005°48'1312.9
2015-Sep-02 07:34N 54°57' W 005°28'1514.2
2015-Sep-02 06:31N 54°59' W 005°03'2 1.9
2015-Sep-02 05:33N 54°58' W 005°01'5 5.1
2015-Sep-02 04:33N 55°01' W 005°07'1817.8
2015-Sep-02 03:33N 54°54' W 005°36'8 7.9
2015-Sep-02 02:33N 54°51' W 005°48'0 0.0
2015-Sep-02 01:33N 54°51' W 005°48'5 4.7
2015-Sep-02 00:31N 54°53' W 005°41'1616.2
2015-Sep-01 23:33N 55°00' W 005°16'9 9.0
2015-Sep-01 22:32N 54°58' W 005°01'0 0.0
2015-Sep-01 21:29N 54°58' W 005°01'5 5.5
2015-Sep-01 20:32N 55°02' W 005°07'1716.8
2015-Sep-01 19:32N 54°55' W 005°34'9 8.4
2015-Sep-01 18:29N 54°51' W 005°48'0 0.0
2015-Sep-01 17:32N 54°51' W 005°48'1313.7
2015-Sep-01 16:34N 54°58' W 005°28'1514.5
2015-Sep-01 15:31N 54°58' W 005°01'0 0.2
2015-Sep-01 14:32N 54°58' W 005°01'1111.4
2015-Sep-01 13:33N 54°58' W 005°20'1717.5
2015-Sep-01 12:33N 54°51' W 005°48'0 0.1
2015-Sep-01 11:33N 54°51' W 005°48'1312.9
2015-Sep-01 10:33N 54°57' W 005°28'1514.5
2015-Sep-01 09:33N 54°59' W 005°03'2 1.9
2015-Sep-01 08:33N 54°58' W 005°01'9 9.2
2015-Sep-01 07:33N 54°59' W 005°17'1917.9
2015-Sep-01 06:29N 54°51' W 005°48'1 0.6
2015-Sep-01 05:34N 54°51' W 005°48'5 4.5
2015-Sep-01 04:33N 54°53' W 005°41'1515.2
2015-Sep-01 03:33N 55°00' W 005°18'10 9.9
2015-Sep-01 02:34N 54°58' W 005°01'0 0.0
2015-Sep-01 01:33N 54°58' W 005°01'6 5.5
2015-Sep-01 00:30N 55°01' W 005°09'1718.2
2015-Aug-31 23:34N 54°54' W 005°36'8 7.7
2015-Aug-31 22:33N 54°51' W 005°48'0 0.0
2015-Aug-31 21:33N 54°51' W 005°48'5 4.8
2015-Aug-31 20:34N 54°53' W 005°41'1515.0
2015-Aug-31 19:33N 54°60' W 005°17'9 8.9
2015-Aug-31 18:30N 54°58' W 005°01'0 0.0
2015-Aug-31 17:33N 54°58' W 005°01'1212.0
2015-Aug-31 16:33N 54°58' W 005°22'1715.1
2015-Aug-31 15:28N 54°51' W 005°48'0 0.0
2015-Aug-31 14:32N 54°51' W 005°48'1313.5
2015-Aug-31 13:33N 54°57' W 005°28'1413.7
2015-Aug-31 12:32N 54°60' W 005°04'3 2.6
2015-Aug-31 11:33N 54°58' W 005°01'1010.1
2015-Aug-31 10:33N 54°59' W 005°19'1817.3
2015-Aug-31 09:32N 54°52' W 005°47'1 1.2
2015-Aug-31 08:33N 54°51' W 005°48'1211.9
2015-Aug-31 07:33N 54°56' W 005°30'1514.5
2015-Aug-31 06:30N 54°59' W 005°03'2 2.3
2015-Aug-31 05:33N 54°58' W 005°01'5 4.8
2015-Aug-31 04:31N 55°01' W 005°07'1717.9
2015-Aug-31 03:33N 54°55' W 005°35'9 8.8
2015-Aug-31 02:33N 54°51' W 005°48'0 0.0
2015-Aug-31 01:33N 54°51' W 005°48'0 0.0
2015-Aug-31 00:33N 54°51' W 005°48'4 4.2
2015-Aug-30 23:34N 54°53' W 005°42'1515.2
2015-Aug-30 22:33N 54°60' W 005°18'10 9.3
2015-Aug-30 21:29N 54°58' W 005°01'5 5.1
2015-Aug-30 20:31N 55°01' W 005°07'1515.5
2015-Aug-30 19:33N 54°55' W 005°30'1110.9
2015-Aug-30 18:33N 54°51' W 005°48'0 0.0
2015-Aug-30 17:33N 54°51' W 005°48'1211.9
2015-Aug-30 16:34N 54°57' W 005°30'1614.0
2015-Aug-30 15:27N 54°59' W 005°03'2 2.3
2015-Aug-30 14:31N 54°58' W 005°01'5 4.8
2015-Aug-30 13:30N 55°02' W 005°06'1717.5
2015-Aug-30 12:33N 54°55' W 005°33'10 9.6
2015-Aug-30 11:33N 54°51' W 005°48'0 0.0
2015-Aug-30 10:33N 54°51' W 005°48'0 0.0
2015-Aug-30 09:33N 54°51' W 005°48'0 0.0
2015-Aug-30 08:33N 54°51' W 005°48'1413.7
2015-Aug-30 07:33N 54°58' W 005°27'1413.5
2015-Aug-30 06:32N 54°59' W 005°03'2 2.2
2015-Aug-30 05:33N 54°58' W 005°01'0 0.0
2015-Aug-30 04:33N 54°58' W 005°01'0 0.0
2015-Aug-30 03:33N 54°58' W 005°01'0 0.0
2015-Aug-30 02:33N 54°58' W 005°01'0 0.0
2015-Aug-30 01:33N 54°58' W 005°01'0 0.0
2015-Aug-30 00:33N 54°58' W 005°01'0 0.0
2015-Aug-29 23:33N 54°58' W 005°01'0 0.0
2015-Aug-29 22:33N 54°58' W 005°01'0 0.0
2015-Aug-29 21:32N 54°58' W 005°01'5 4.9
2015-Aug-29 20:26N 55°01' W 005°08'1415.6
2015-Aug-29 19:33N 54°56' W 005°29'1211.6
2015-Aug-29 18:33N 54°51' W 005°48'0 0.0
2015-Aug-29 17:33N 54°51' W 005°48'1313.3
2015-Aug-29 16:33N 54°57' W 005°28'1514.6
2015-Aug-29 15:33N 54°59' W 005°02'1 1.2
2015-Aug-29 14:33N 54°58' W 005°01'1212.2
2015-Aug-29 13:33N 54°57' W 005°22'1615.9
2015-Aug-29 12:33N 54°51' W 005°48'0 0.1
2015-Aug-29 11:32N 54°51' W 005°48'1312.8
2015-Aug-29 10:34N 54°57' W 005°29'1514.5
2015-Aug-29 09:32N 54°59' W 005°03'2 2.1
2015-Aug-29 08:34N 54°58' W 005°01'10 9.8
2015-Aug-29 07:33N 54°59' W 005°18'1616.0
2015-Aug-29 06:34N 54°52' W 005°44'3 2.9
2015-Aug-29 05:33N 54°51' W 005°48'6 5.7
2015-Aug-29 04:33N 54°54' W 005°39'1616.4
2015-Aug-29 03:34N 55°01' W 005°14'8 7.8
2015-Aug-29 02:33N 54°58' W 005°01'0 0.0
2015-Aug-29 01:33N 54°58' W 005°01'6 5.2
2015-Aug-29 00:26N 55°02' W 005°09'1617.8
2015-Aug-28 23:33N 54°55' W 005°33'9 9.2
2015-Aug-28 22:33N 54°51' W 005°48'0 0.0
2015-Aug-28 21:33N 54°51' W 005°48'6 5.7
2015-Aug-28 20:33N 54°54' W 005°39'1616.1
2015-Aug-28 19:34N 55°01' W 005°14'8 7.6
2015-Aug-28 18:29N 54°58' W 005°01'0 0.0
2015-Aug-28 17:33N 54°58' W 005°01'1010.1
2015-Aug-28 16:33N 54°58' W 005°18'1817.3
2015-Aug-28 15:32N 54°52' W 005°47'1 1.2
2015-Aug-28 14:33N 54°51' W 005°48'1615.5
2015-Aug-28 13:33N 54°58' W 005°24'1312.8
2015-Aug-28 12:31N 54°58' W 005°01'0 0.0
2015-Aug-28 11:29N 54°58' W 005°01'1112.0
2015-Aug-28 10:33N 54°59' W 005°20'1817.7
2015-Aug-28 09:34N 54°51' W 005°48'0 0.1
2015-Aug-28 08:33N 54°51' W 005°48'1313.4
2015-Aug-28 07:34N 54°57' W 005°28'1414.0
2015-Aug-28 06:33N 54°59' W 005°03'2 2.0
2015-Aug-28 05:33N 54°58' W 005°01'5 5.0
2015-Aug-28 04:30N 55°02' W 005°07'1617.3
2015-Aug-28 03:33N 54°55' W 005°33'9 9.5
2015-Aug-28 02:33N 54°51' W 005°48'0 0.0
2015-Aug-28 01:34N 54°51' W 005°48'6 6.1
2015-Aug-28 00:33N 54°55' W 005°40'1818.0
2015-Aug-27 23:33N 55°02' W 005°11'7 6.7
2015-Aug-27 22:34N 54°58' W 005°01'0 0.0
2015-Aug-27 21:31N 54°58' W 005°01'7 6.0
2015-Aug-27 20:23N 55°02' W 005°11'1416.8
2015-Aug-27 19:33N 54°55' W 005°32'1010.0
2015-Aug-27 18:33N 54°51' W 005°48'0 0.0
2015-Aug-27 17:33N 54°51' W 005°48'1413.9
2015-Aug-27 16:33N 54°58' W 005°27'1513.2
2015-Aug-27 15:26N 54°58' W 005°01'0 0.0
2015-Aug-27 14:32N 54°58' W 005°01'1010.3
2015-Aug-27 13:34N 54°59' W 005°18'1817.5
2015-Aug-27 12:32N 54°52' W 005°47'1 1.2
2015-Aug-27 11:31N 54°51' W 005°48'1212.8
2015-Aug-27 10:34N 54°57' W 005°29'1515.1
2015-Aug-27 09:33N 54°59' W 005°03'2 2.3
2015-Aug-27 08:33N 54°58' W 005°01'9 8.9
2015-Aug-27 07:33N 54°59' W 005°16'2017.7
2015-Aug-27 06:26N 54°51' W 005°48'0 0.1
2015-Aug-27 05:28N 54°51' W 005°48'8 8.5
2015-Aug-27 04:33N 54°55' W 005°36'1817.8
2015-Aug-27 03:33N 55°02' W 005°07'5 5.3
2015-Aug-27 02:33N 54°58' W 005°01'0 0.0
2015-Aug-27 01:33N 54°58' W 005°01'5 4.6
2015-Aug-27 00:30N 55°02' W 005°06'1818.7
2015-Aug-26 23:33N 54°55' W 005°34'9 8.7
2015-Aug-26 22:33N 54°51' W 005°48'0 0.0
2015-Aug-26 21:33N 54°51' W 005°48'4 4.0
2015-Aug-26 20:28N 54°54' W 005°43'1617.1
2015-Aug-26 19:32N 55°00' W 005°18'10 9.7
2015-Aug-26 18:30N 54°58' W 005°01'0 0.0
2015-Aug-26 17:33N 54°58' W 005°01'9 8.6
2015-Aug-26 16:33N 54°60' W 005°16'1918.6
2015-Aug-26 15:33N 54°52' W 005°45'2 2.0
2015-Aug-26 14:33N 54°51' W 005°48'1313.2
2015-Aug-26 13:33N 54°57' W 005°28'1514.9
2015-Aug-26 12:34N 54°59' W 005°02'1 1.2
2015-Aug-26 11:33N 54°58' W 005°01'9 9.1
2015-Aug-26 10:33N 54°59' W 005°17'1818.1
2015-Aug-26 09:33N 54°52' W 005°45'2 1.9
2015-Aug-26 08:33N 54°51' W 005°48'1211.7
2015-Aug-26 07:34N 54°56' W 005°30'1615.7
2015-Aug-26 06:33N 54°59' W 005°03'2 1.9
2015-Aug-26 05:32N 54°58' W 005°01'5 4.6
2015-Aug-26 04:29N 55°02' W 005°06'1617.6
2015-Aug-26 03:33N 54°55' W 005°32'1010.1
2015-Aug-26 02:33N 54°51' W 005°48'0 0.0
2015-Aug-26 01:33N 54°51' W 005°48'3 3.5
2015-Aug-26 00:33N 54°53' W 005°43'1818.4
2015-Aug-25 23:33N 55°01' W 005°14'8 8.0
2015-Aug-25 22:30N 54°58' W 005°01'5 2.6
2015-Aug-25 20:27N 55°01' W 005°08'1618.1
2015-Aug-25 19:33N 54°55' W 005°33'9 9.3
2015-Aug-25 18:33N 54°51' W 005°48'0 0.0
2015-Aug-25 17:34N 54°51' W 005°48'1212.2
2015-Aug-25 16:33N 54°57' W 005°29'1515.5
2015-Aug-25 15:33N 54°59' W 005°03'1 1.4
2015-Aug-25 14:33N 54°58' W 005°01'1110.7
2015-Aug-25 13:33N 54°58' W 005°20'1717.4
2015-Aug-25 12:33N 54°51' W 005°48'1 0.6
2015-Aug-25 11:33N 54°51' W 005°48'1111.4
2015-Aug-25 10:34N 54°57' W 005°31'1616.0
2015-Aug-25 09:33N 54°59' W 005°03'2 2.2
2015-Aug-25 08:33N 54°58' W 005°01'1010.1
2015-Aug-25 07:33N 54°59' W 005°18'1918.4
2015-Aug-25 06:33N 54°51' W 005°48'0 0.5
2015-Aug-25 05:33N 54°51' W 005°48'6 6.2
2015-Aug-25 04:33N 54°54' W 005°39'1918.5
2015-Aug-25 03:33N 55°02' W 005°09'6 6.1
2015-Aug-25 02:33N 54°58' W 005°01'0 0.0
2015-Aug-25 01:33N 54°58' W 005°01'5 5.1
2015-Aug-25 00:31N 55°02' W 005°07'1717.9
2015-Aug-24 23:33N 54°54' W 005°34'8 8.4
2015-Aug-24 22:33N 54°51' W 005°48'0 0.0
2015-Aug-24 21:30N 54°51' W 005°48'2 1.7
2015-Aug-24 20:33N 54°52' W 005°46'1918.6
2015-Aug-24 19:34N 54°60' W 005°17'9 9.0
2015-Aug-24 18:31N 54°58' W 005°01'0 0.0
2015-Aug-24 17:33N 54°58' W 005°01'10 9.9
2015-Aug-24 16:33N 54°59' W 005°18'1818.2
2015-Aug-24 15:34N 54°52' W 005°47'1 0.9
2015-Aug-24 14:33N 54°51' W 005°48'1111.4
2015-Aug-24 13:33N 54°57' W 005°31'1615.6
2015-Aug-24 12:31N 54°59' W 005°03'2 1.6
2015-Aug-24 11:31N 54°58' W 005°01'10 9.9
2015-Aug-24 10:33N 54°59' W 005°17'1917.9
2015-Aug-24 09:30N 54°51' W 005°48'1 0.6
2015-Aug-24 08:33N 54°51' W 005°48'1111.2
2015-Aug-24 07:34N 54°57' W 005°31'1715.6
2015-Aug-24 06:30N 54°59' W 005°03'2 1.8
2015-Aug-24 05:33N 54°58' W 005°01'5 4.8
2015-Aug-24 04:33N 55°02' W 005°06'1818.2
2015-Aug-24 03:34N 54°54' W 005°34'9 8.4
2015-Aug-24 02:32N 54°51' W 005°48'0 0.0
2015-Aug-24 01:32N 54°51' W 005°48'0 0.0
2015-Aug-24 00:32N 54°51' W 005°48'3 3.1
2015-Aug-23 23:33N 54°53' W 005°45'1918.6
2015-Aug-23 22:34N 55°02' W 005°17'5 2.2
2015-Aug-23 20:23N 55°02' W 005°08'1618.7
2015-Aug-23 19:33N 54°55' W 005°33'10 9.6
2015-Aug-23 18:33N 54°51' W 005°48'0 0.0
2015-Aug-23 17:33N 54°51' W 005°48'1211.5
2015-Aug-23 16:34N 54°57' W 005°31'  

Dump ship's entire track history